Overview Statistics Trail Chart Weather Telemetry Raw packets
 

This is the latest recevied telemetry packets stored in our database for station/object DO1IJB-13. If no packets are shown the sender has not sent any telemetry packets the latest 10 day(s).

Telemetry packets is used to share measurements like repeteater parameters, battery voltage, radiation readings (or any other measurements).

<< 1 2 3 4 >>
Time Press* Temp.in* Hum* QNH* Temp.out*
1788584317 971.9 hPa 13.5 C deg 71.9 % 984.7 hPa 0 C deg
1788582537 971.3 hPa 12.5 C deg 70.8 % 984.1 hPa 0 C deg
1788580688 971.1 hPa 13.3 C deg 69.5 % 983.9 hPa 0 C deg
1788578869 970.9 hPa 14.3 C deg 68 % 983.6 hPa 0 C deg
1788577063 970.9 hPa 15.7 C deg 66.5 % 983.5 hPa 0 C deg
1788575240 971.3 hPa 16.9 C deg 65 % 984 hPa 0 C deg
1788573424 971.2 hPa 17.2 C deg 64 % 983.8 hPa 0 C deg
1788571617 970.6 hPa 18.3 C deg 60.1 % 983.2 hPa 0 C deg
1788569815 970 hPa 20.8 C deg 57.4 % 982.5 hPa 0 C deg
1788567978 969.7 hPa 21.9 C deg 56.3 % 982.1 hPa 0 C deg
1788566166 969.3 hPa 22.2 C deg 55.2 % 981.7 hPa 0 C deg
1788564348 969.2 hPa 22.6 C deg 53.8 % 981.6 hPa 0 C deg
1788562533 969.3 hPa 23.1 C deg 52.6 % 981.6 hPa 0 C deg
1788560718 969 hPa 23.7 C deg 51.6 % 981.3 hPa 0 C deg
1788558910 968.7 hPa 24.4 C deg 50.6 % 981 hPa 0 C deg
1788557093 968.1 hPa 24.9 C deg 49.9 % 980.4 hPa 0 C deg
1788555288 967.7 hPa 25 C deg 49.6 % 979.9 hPa 0 C deg
1788553458 967.5 hPa 25.3 C deg 49.2 % 979.8 hPa 0 C deg
1788551643 967.5 hPa 25.6 C deg 48.8 % 979.7 hPa 0 C deg
1788549829 967.3 hPa 25.9 C deg 48.3 % 979.5 hPa 0 C deg
1788548042 967.1 hPa 26.1 C deg 47.9 % 979.3 hPa 0 C deg
1788546201 966.7 hPa 26.8 C deg 47.2 % 978.8 hPa 0 C deg
1788544389 966.5 hPa 27.9 C deg 46.2 % 978.7 hPa 0 C deg
1788542568 966.4 hPa 29 C deg 45.9 % 978.5 hPa 0 C deg
1788540758 966.3 hPa 29.6 C deg 45.7 % 978.4 hPa 0 C deg
*Used Equation Coefficients:
Press: 0, 1, 0
Temp.in: 0, 1, 0
Hum: 0, 1, 0
QNH: 0, 1, 0
Temp.out: 0, 1, 0

  • The parameter names for the analog channels will be Value1, Value2, Value3 (up to Value5) if station has not sent a PARAM-packet that specifies the parameter names for each analog channel.
  • Each analog value is a decimal number between 000 and 255 (according to APRS specifications). The receiver use the telemetry equation coefficientsto to restore the original sensor values. If no EQNS-packet with equation coefficients is sent we will show the values as is (this corresponds to the equation coefficients a=0, b=1 and c=0).
    The sent equation coefficients is used in the equation: a * value2 + b * value + c.
  • The units for the analog values will not be shown if station has not sent a UNIT-packet specifying what unit's to use.
  • The parameter names for the digital bits will be Bit1, Bit2, Bit3 (up to Bit8) if station has not sent a PARAM-packet that specifies the parameter names for each digital bit.
  • All bit labels will be named "On" if station has not sent a UNIT-packet that specifies the label of each bit.
  • A bit is considered to be On when the bit is 1 if station has not sent a BITS-packet that specifies another "Bit sense" (a BITS-packet specify the state of the bits that match the BIT labels)